Al Mirqab — ZCTS4 — position and weather

sailwx.info

Track history (hours):
 
Tides and Currents Weather Stations Pressure Air Temp Water Temp Dewpoint Dewpoint Depression Visibility Wind Speed Wind Dir Waves Ship Positions

Al Mirqab

Last reported at 2014-Aug-25 00:21 UTC. Time now 2014-Oct-02 12:26 UTC.
Position N 43°09' E 007°47'.
Warning: this ship's position is 38 days out of date.

Length 133 m; draft 5.2 m.

Type: Pleasure craft. MMSI: 319361000.

Date/timePositionNaut miles runAvg speedWind from/ knotsBaromVisibWave heightAir tempDewpointWater temp
2014-Aug-25 00:21N 43°09' E 007°47'1316.5
2014-Aug-24 23:33N 43°21' E 007°40'24 4.9
2014-Aug-24 18:32N 43°42' E 007°24'2 2.1
2014-Aug-24 17:23N 43°43' E 007°21'0 0.0
2014-Aug-24 16:30N 43°43' E 007°21'0 0.0
2014-Aug-24 15:25N 43°43' E 007°21'0 0.0
2014-Aug-24 14:20N 43°43' E 007°21'0 0.0
2014-Aug-24 13:20N 43°43' E 007°21'0 0.0
2014-Aug-24 12:27N 43°43' E 007°21'0 0.0
2014-Aug-24 11:33N 43°43' E 007°21'0 0.0
2014-Aug-24 10:22N 43°43' E 007°21'0 0.0
2014-Aug-24 09:29N 43°43' E 007°21'0 0.0
2014-Aug-24 08:29N 43°43' E 007°21'0 0.0
2014-Aug-24 07:18N 43°43' E 007°21'0 0.0
2014-Aug-24 06:25N 43°43' E 007°21'0 0.0
2014-Aug-24 05:14N 43°43' E 007°21'0 0.0
2014-Aug-24 04:26N 43°43' E 007°21'0 0.0
2014-Aug-24 03:33N 43°43' E 007°21'0 0.0
2014-Aug-23 22:17N 43°43' E 007°21'0 0.0
2014-Aug-23 21:18N 43°43' E 007°21'0 0.0
2014-Aug-23 20:24N 43°43' E 007°21'0 0.0
2014-Aug-23 19:25N 43°43' E 007°21'3 0.1
2014-Aug-22 18:10N 43°42' E 007°17'1 1.1
2014-Aug-22 17:33N 43°41' E 007°17'3 2.9
2014-Aug-22 16:33N 43°40' E 007°21'2 2.1
2014-Aug-22 15:31N 43°43' E 007°21'0 0.0
2014-Aug-22 14:32N 43°43' E 007°21'0 0.0
2014-Aug-22 11:28N 43°43' E 007°21'0 0.0
2014-Aug-22 08:24N 43°43' E 007°21'0 0.0
2014-Aug-22 07:24N 43°43' E 007°21'0 0.0
2014-Aug-22 05:32N 43°43' E 007°21'0 0.0
2014-Aug-22 04:32N 43°43' E 007°21'0 0.0
2014-Aug-22 03:27N 43°43' E 007°21'0 0.0
2014-Aug-22 02:28N 43°43' E 007°21'0 0.0
2014-Aug-22 01:28N 43°43' E 007°21'0 0.0
2014-Aug-22 00:29N 43°43' E 007°21'0 0.0
2014-Aug-21 23:30N 43°43' E 007°21'0 0.0
2014-Aug-21 22:25N 43°43' E 007°21'0 0.0
2014-Aug-21 21:31N 43°43' E 007°21'0 0.0
2014-Aug-21 20:32N 43°43' E 007°21'0 0.0
2014-Aug-21 19:32N 43°43' E 007°21'0 0.0
2014-Aug-21 18:33N 43°43' E 007°21'0 0.0
2014-Aug-21 17:22N 43°43' E 007°21'0 0.0
2014-Aug-21 16:23N 43°43' E 007°21'0 0.0
2014-Aug-21 15:11N 43°43' E 007°21'0 0.0
2014-Aug-21 14:18N 43°43' E 007°21'0 0.0
2014-Aug-21 13:30N 43°43' E 007°21'0 0.0
2014-Aug-21 12:25N 43°43' E 007°21'0 0.0
2014-Aug-21 11:20N 43°43' E 007°21'0 0.0
2014-Aug-21 10:27N 43°43' E 007°21'0 0.0
2014-Aug-21 09:33N 43°43' E 007°21'0 0.0
2014-Aug-21 08:22N 43°43' E 007°21'0 0.0
2014-Aug-21 07:29N 43°43' E 007°21'0 0.0
2014-Aug-21 06:29N 43°43' E 007°21'0 0.0
2014-Aug-21 05:30N 43°43' E 007°21'0 0.0
2014-Aug-21 04:31N 43°43' E 007°21'0 0.0
2014-Aug-21 03:31N 43°43' E 007°21'0 0.0
2014-Aug-21 02:26N 43°43' E 007°21'0 0.0
2014-Aug-21 01:32N 43°43' E 007°21'0 0.0
2014-Aug-21 00:33N 43°43' E 007°21'0 0.0
2014-Aug-20 23:28N 43°43' E 007°21'0 0.0
2014-Aug-20 22:29N 43°43' E 007°21'0 0.0
2014-Aug-20 19:10N 43°43' E 007°21'0 0.0
2014-Aug-20 18:16N 43°43' E 007°21'0 0.0
2014-Aug-20 17:32N 43°43' E 007°21'0 0.0
2014-Aug-20 16:21N 43°43' E 007°21'0 0.0
2014-Aug-20 15:33N 43°43' E 007°21'0 0.0
2014-Aug-20 14:28N 43°43' E 007°21'0 0.0
2014-Aug-20 13:23N 43°43' E 007°21'0 0.0
2014-Aug-20 12:23N 43°43' E 007°21'0 0.0
2014-Aug-20 11:12N 43°43' E 007°21'0 0.0
2014-Aug-20 10:19N 43°43' E 007°21'0 0.0
2014-Aug-20 09:13N 43°43' E 007°21'0 0.0
2014-Aug-20 08:32N 43°43' E 007°21'0 0.0
2014-Aug-20 07:33N 43°43' E 007°21'0 0.0
2014-Aug-20 06:33N 43°43' E 007°21'0 0.0
2014-Aug-20 05:04N 43°43' E 007°21'0 0.0
2014-Aug-20 04:29N 43°43' E 007°21'0 0.0
2014-Aug-20 03:23N 43°43' E 007°21'0 0.0
2014-Aug-20 02:30N 43°43' E 007°21'0 0.0
2014-Aug-20 01:31N 43°43' E 007°21'0 0.0
2014-Aug-20 00:31N 43°43' E 007°21'0 0.0
2014-Aug-19 23:26N 43°43' E 007°21'0 0.0
2014-Aug-19 22:33N 43°43' E 007°21'0 0.0
2014-Aug-19 21:33N 43°43' E 007°21'0 0.0
2014-Aug-19 20:22N 43°43' E 007°21'0 0.0
2014-Aug-19 19:11N 43°43' E 007°21'0 0.0
2014-Aug-19 18:29N 43°43' E 007°21'0 0.0
2014-Aug-19 17:24N 43°43' E 007°21'0 0.0
2014-Aug-19 16:31N 43°43' E 007°21'0 0.0
2014-Aug-19 15:25N 43°43' E 007°21'0 0.0
2014-Aug-19 14:20N 43°43' E 007°21'0 0.1
2014-Aug-19 13:33N 43°42' E 007°21'10 9.9
2014-Aug-19 12:33N 43°35' E 007°13'1312.7
2014-Aug-19 11:33N 43°27' E 006°59'1313.2
2014-Aug-19 10:33N 43°19' E 006°44'5 4.4
2014-Aug-19 09:29N 43°16' E 006°39'0 0.0
2014-Aug-19 08:27N 43°16' E 006°39'0 0.0
2014-Aug-19 07:28N 43°16' E 006°39'0 0.0
2014-Aug-19 06:25N 43°16' E 006°39'0 0.0
2014-Aug-19 05:32N 43°16' E 006°39'0 0.0
2014-Aug-19 04:06N 43°16' E 006°39'0 0.0
2014-Aug-19 03:33N 43°16' E 006°39'0 0.0
2014-Aug-19 02:25N 43°16' E 006°39'0 0.0
2014-Aug-19 01:17N 43°16' E 006°39'0 0.0
2014-Aug-19 00:29N 43°16' E 006°39'0 0.0
2014-Aug-18 23:27N 43°16' E 006°39'0 0.0
2014-Aug-18 22:34N 43°16' E 006°39'0 0.0
2014-Aug-18 21:31N 43°16' E 006°39'0 0.0
2014-Aug-18 20:32N 43°16' E 006°39'0 0.0
2014-Aug-18 19:33N 43°16' E 006°39'0 0.0
2014-Aug-18 18:24N 43°16' E 006°39'0 0.0
2014-Aug-18 17:25N 43°16' E 006°39'0 0.0
2014-Aug-18 16:29N 43°16' E 006°39'0 0.0
2014-Aug-18 15:32N 43°16' E 006°39'0 0.0
2014-Aug-18 14:33N 43°16' E 006°39'0 0.0
2014-Aug-18 13:28N 43°16' E 006°39'0 0.2
2014-Aug-18 12:31N 43°16' E 006°40'0 0.3
2014-Aug-18 11:26N 43°17' E 006°39'0 0.1
2014-Aug-18 10:33N 43°16' E 006°39'0 0.0
2014-Aug-18 09:30N 43°16' E 006°39'0 0.0
2014-Aug-18 07:32N 43°16' E 006°39'0 0.0
2014-Aug-18 06:29N 43°16' E 006°39'0 0.0
2014-Aug-18 04:13N 43°16' E 006°39'0 0.0
2014-Aug-18 03:19N 43°16' E 006°39'0 0.0
2014-Aug-18 02:14N 43°16' E 006°39'0 0.0
2014-Aug-18 01:24N 43°16' E 006°39'0 0.0
2014-Aug-18 00:27N 43°16' E 006°39'0 0.0
2014-Aug-17 18:22N 43°16' E 006°39'0 0.4
2014-Aug-17 17:32N 43°16' E 006°40'2 1.7
2014-Aug-17 16:33N 43°17' E 006°41'4 3.9
2014-Aug-17 15:31N 43°14' E 006°40'0 0.0
2014-Aug-17 14:28N 43°14' E 006°40'0 0.0
2014-Aug-17 13:32N 43°14' E 006°40'0 0.4
2014-Aug-17 12:33N 43°14' E 006°41'1312.7
2014-Aug-17 11:33N 43°22' E 006°55'1413.7
2014-Aug-17 10:33N 43°31' E 007°08'1313.2
2014-Aug-17 09:33N 43°40' E 007°21'2 2.0
2014-Aug-17 08:23N 43°43' E 007°21'0 0.0
2014-Aug-17 07:30N 43°43' E 007°21'0 0.0
2014-Aug-17 04:32N 43°43' E 007°21'0 0.0
2014-Aug-17 03:33N 43°43' E 007°21'0 0.0
2014-Aug-17 02:33N 43°43' E 007°21'0 0.0
2014-Aug-17 01:28N 43°43' E 007°21'0 0.0
2014-Aug-17 00:23N 43°43' E 007°21'0 0.0
2014-Aug-16 23:29N 43°43' E 007°21'0 0.0
2014-Aug-16 22:30N 43°43' E 007°21'0 0.0
2014-Aug-16 21:25N 43°43' E 007°21'0 0.1
2014-Aug-16 20:31N 43°43' E 007°21'0 0.0
2014-Aug-16 19:32N 43°43' E 007°21'0 0.0
2014-Aug-16 18:33N 43°43' E 007°21'0 0.0
2014-Aug-16 17:33N 43°43' E 007°21'0 0.0
2014-Aug-16 16:28N 43°43' E 007°21'0 0.0
2014-Aug-16 15:29N 43°43' E 007°21'0 0.0
2014-Aug-16 14:29N 43°43' E 007°21'0 0.0
2014-Aug-16 12:19N 43°43' E 007°21'0 0.0
2014-Aug-16 11:09N 43°43' E 007°21'0 0.0
2014-Aug-16 10:27N 43°43' E 007°21'0 0.0
2014-Aug-16 09:28N 43°43' E 007°21'0 0.0
2014-Aug-16 08:29N 43°43' E 007°21'0 0.0
2014-Aug-16 07:17N 43°43' E 007°21'0 0.0
2014-Aug-16 06:30N 43°43' E 007°21'0 0.0
2014-Aug-16 05:31N 43°43' E 007°21'0 0.0
2014-Aug-16 04:31N 43°43' E 007°21'0 0.0
2014-Aug-16 03:32N 43°43' E 007°21'0 0.0
2014-Aug-16 02:33N 43°43' E 007°21'0 0.0
2014-Aug-16 01:27N 43°43' E 007°21'0 0.0
2014-Aug-16 00:28N 43°43' E 007°21'0 0.0
2014-Aug-15 23:17N 43°43' E 007°21'0 0.0
2014-Aug-15 22:29N 43°43' E 007°21'0 0.1
2014-Aug-15 21:12N 43°43' E 007°21'0 0.0
2014-Aug-15 20:19N 43°43' E 007°21'0 0.0
2014-Aug-15 19:31N 43°43' E 007°21'0 0.0
2014-Aug-15 18:32N 43°43' E 007°21'0 0.0
2014-Aug-15 17:27N 43°43' E 007°21'0 0.0
2014-Aug-15 16:33N 43°43' E 007°21'0 0.0
2014-Aug-15 15:10N 43°43' E 007°21'0 0.0
2014-Aug-15 14:29N 43°43' E 007°21'0 0.1
2014-Aug-15 13:11N 43°43' E 007°21'0 0.1
2014-Aug-15 12:30N 43°43' E 007°21'0 0.0
2014-Aug-15 11:31N 43°43' E 007°21'0 0.0
2014-Aug-15 10:31N 43°43' E 007°21'0 0.0
2014-Aug-15 09:32N 43°43' E 007°21'0 0.0
2014-Aug-15 08:27N 43°43' E 007°21'0 0.0
2014-Aug-15 07:21N 43°43' E 007°21'0 0.0
2014-Aug-15 06:22N 43°43' E 007°21'0 0.0
2014-Aug-15 05:29N 43°43' E 007°21'0 0.0
2014-Aug-15 04:29N 43°43' E 007°21'0 0.0
2014-Aug-15 03:30N 43°43' E 007°21'0 0.0
2014-Aug-15 02:25N 43°43' E 007°21'0 0.1
2014-Aug-15 01:31N 43°43' E 007°21'0 0.0
2014-Aug-15 00:32N 43°43' E 007°21'  
Track history (hours):
 
Tides and Currents Weather Stations Pressure Air Temp Water Temp Dewpoint Dewpoint Depression Visibility Wind Speed Wind Dir Waves Ship Positions

Al Mirqab

Last reported at 2014-Aug-25 00:21 UTC. Time now 2014-Oct-02 12:26 UTC.
Position N 43°09' E 007°47'.
Warning: this ship's position is 38 days out of date.

Length 133 m; draft 5.2 m.

Type: Pleasure craft. MMSI: 319361000.

Date/timePositionNaut miles runAvg speedWind from/ knotsBaromVisibWave heightAir tempDewpointWater temp
2014-Aug-25 00:21N 43°09' E 007°47'1316.5
2014-Aug-24 23:33N 43°21' E 007°40'24 4.9
2014-Aug-24 18:32N 43°42' E 007°24'2 2.1
2014-Aug-24 17:23N 43°43' E 007°21'0 0.0
2014-Aug-24 16:30N 43°43' E 007°21'0 0.0
2014-Aug-24 15:25N 43°43' E 007°21'0 0.0
2014-Aug-24 14:20N 43°43' E 007°21'0 0.0
2014-Aug-24 13:20N 43°43' E 007°21'0 0.0
2014-Aug-24 12:27N 43°43' E 007°21'0 0.0
2014-Aug-24 11:33N 43°43' E 007°21'0 0.0
2014-Aug-24 10:22N 43°43' E 007°21'0 0.0
2014-Aug-24 09:29N 43°43' E 007°21'0 0.0
2014-Aug-24 08:29N 43°43' E 007°21'0 0.0
2014-Aug-24 07:18N 43°43' E 007°21'0 0.0
2014-Aug-24 06:25N 43°43' E 007°21'0 0.0
2014-Aug-24 05:14N 43°43' E 007°21'0 0.0
2014-Aug-24 04:26N 43°43' E 007°21'0 0.0
2014-Aug-24 03:33N 43°43' E 007°21'0 0.0
2014-Aug-23 22:17N 43°43' E 007°21'0 0.0
2014-Aug-23 21:18N 43°43' E 007°21'0 0.0
2014-Aug-23 20:24N 43°43' E 007°21'0 0.0
2014-Aug-23 19:25N 43°43' E 007°21'3 0.1
2014-Aug-22 18:10N 43°42' E 007°17'1 1.1
2014-Aug-22 17:33N 43°41' E 007°17'3 2.9
2014-Aug-22 16:33N 43°40' E 007°21'2 2.1
2014-Aug-22 15:31N 43°43' E 007°21'0 0.0
2014-Aug-22 14:32N 43°43' E 007°21'0 0.0
2014-Aug-22 11:28N 43°43' E 007°21'0 0.0
2014-Aug-22 08:24N 43°43' E 007°21'0 0.0
2014-Aug-22 07:24N 43°43' E 007°21'0 0.0
2014-Aug-22 05:32N 43°43' E 007°21'0 0.0
2014-Aug-22 04:32N 43°43' E 007°21'0 0.0
2014-Aug-22 03:27N 43°43' E 007°21'0 0.0
2014-Aug-22 02:28N 43°43' E 007°21'0 0.0
2014-Aug-22 01:28N 43°43' E 007°21'0 0.0
2014-Aug-22 00:29N 43°43' E 007°21'0 0.0
2014-Aug-21 23:30N 43°43' E 007°21'0 0.0
2014-Aug-21 22:25N 43°43' E 007°21'0 0.0
2014-Aug-21 21:31N 43°43' E 007°21'0 0.0
2014-Aug-21 20:32N 43°43' E 007°21'0 0.0
2014-Aug-21 19:32N 43°43' E 007°21'0 0.0
2014-Aug-21 18:33N 43°43' E 007°21'0 0.0
2014-Aug-21 17:22N 43°43' E 007°21'0 0.0
2014-Aug-21 16:23N 43°43' E 007°21'0 0.0
2014-Aug-21 15:11N 43°43' E 007°21'0 0.0
2014-Aug-21 14:18N 43°43' E 007°21'0 0.0
2014-Aug-21 13:30N 43°43' E 007°21'0 0.0
2014-Aug-21 12:25N 43°43' E 007°21'0 0.0
2014-Aug-21 11:20N 43°43' E 007°21'0 0.0
2014-Aug-21 10:27N 43°43' E 007°21'0 0.0
2014-Aug-21 09:33N 43°43' E 007°21'0 0.0
2014-Aug-21 08:22N 43°43' E 007°21'0 0.0
2014-Aug-21 07:29N 43°43' E 007°21'0 0.0
2014-Aug-21 06:29N 43°43' E 007°21'0 0.0
2014-Aug-21 05:30N 43°43' E 007°21'0 0.0
2014-Aug-21 04:31N 43°43' E 007°21'0 0.0
2014-Aug-21 03:31N 43°43' E 007°21'0 0.0
2014-Aug-21 02:26N 43°43' E 007°21'0 0.0
2014-Aug-21 01:32N 43°43' E 007°21'0 0.0
2014-Aug-21 00:33N 43°43' E 007°21'0 0.0
2014-Aug-20 23:28N 43°43' E 007°21'0 0.0
2014-Aug-20 22:29N 43°43' E 007°21'0 0.0
2014-Aug-20 19:10N 43°43' E 007°21'0 0.0
2014-Aug-20 18:16N 43°43' E 007°21'0 0.0
2014-Aug-20 17:32N 43°43' E 007°21'0 0.0
2014-Aug-20 16:21N 43°43' E 007°21'0 0.0
2014-Aug-20 15:33N 43°43' E 007°21'0 0.0
2014-Aug-20 14:28N 43°43' E 007°21'0 0.0
2014-Aug-20 13:23N 43°43' E 007°21'0 0.0
2014-Aug-20 12:23N 43°43' E 007°21'0 0.0
2014-Aug-20 11:12N 43°43' E 007°21'0 0.0
2014-Aug-20 10:19N 43°43' E 007°21'0 0.0
2014-Aug-20 09:13N 43°43' E 007°21'0 0.0
2014-Aug-20 08:32N 43°43' E 007°21'0 0.0
2014-Aug-20 07:33N 43°43' E 007°21'0 0.0
2014-Aug-20 06:33N 43°43' E 007°21'0 0.0
2014-Aug-20 05:04N 43°43' E 007°21'0 0.0
2014-Aug-20 04:29N 43°43' E 007°21'0 0.0
2014-Aug-20 03:23N 43°43' E 007°21'0 0.0
2014-Aug-20 02:30N 43°43' E 007°21'0 0.0
2014-Aug-20 01:31N 43°43' E 007°21'0 0.0
2014-Aug-20 00:31N 43°43' E 007°21'0 0.0
2014-Aug-19 23:26N 43°43' E 007°21'0 0.0
2014-Aug-19 22:33N 43°43' E 007°21'0 0.0
2014-Aug-19 21:33N 43°43' E 007°21'0 0.0
2014-Aug-19 20:22N 43°43' E 007°21'0 0.0
2014-Aug-19 19:11N 43°43' E 007°21'0 0.0
2014-Aug-19 18:29N 43°43' E 007°21'0 0.0
2014-Aug-19 17:24N 43°43' E 007°21'0 0.0
2014-Aug-19 16:31N 43°43' E 007°21'0 0.0
2014-Aug-19 15:25N 43°43' E 007°21'0 0.0
2014-Aug-19 14:20N 43°43' E 007°21'0 0.1
2014-Aug-19 13:33N 43°42' E 007°21'10 9.9
2014-Aug-19 12:33N 43°35' E 007°13'1312.7
2014-Aug-19 11:33N 43°27' E 006°59'1313.2
2014-Aug-19 10:33N 43°19' E 006°44'5 4.4
2014-Aug-19 09:29N 43°16' E 006°39'0 0.0
2014-Aug-19 08:27N 43°16' E 006°39'0 0.0
2014-Aug-19 07:28N 43°16' E 006°39'0 0.0
2014-Aug-19 06:25N 43°16' E 006°39'0 0.0
2014-Aug-19 05:32N 43°16' E 006°39'0 0.0
2014-Aug-19 04:06N 43°16' E 006°39'0 0.0
2014-Aug-19 03:33N 43°16' E 006°39'0 0.0
2014-Aug-19 02:25N 43°16' E 006°39'0 0.0
2014-Aug-19 01:17N 43°16' E 006°39'0 0.0
2014-Aug-19 00:29N 43°16' E 006°39'0 0.0
2014-Aug-18 23:27N 43°16' E 006°39'0 0.0
2014-Aug-18 22:34N 43°16' E 006°39'0 0.0
2014-Aug-18 21:31N 43°16' E 006°39'0 0.0
2014-Aug-18 20:32N 43°16' E 006°39'0 0.0
2014-Aug-18 19:33N 43°16' E 006°39'0 0.0
2014-Aug-18 18:24N 43°16' E 006°39'0 0.0
2014-Aug-18 17:25N 43°16' E 006°39'0 0.0
2014-Aug-18 16:29N 43°16' E 006°39'0 0.0
2014-Aug-18 15:32N 43°16' E 006°39'0 0.0
2014-Aug-18 14:33N 43°16' E 006°39'0 0.0
2014-Aug-18 13:28N 43°16' E 006°39'0 0.2
2014-Aug-18 12:31N 43°16' E 006°40'0 0.3
2014-Aug-18 11:26N 43°17' E 006°39'0 0.1
2014-Aug-18 10:33N 43°16' E 006°39'0 0.0
2014-Aug-18 09:30N 43°16' E 006°39'0 0.0
2014-Aug-18 07:32N 43°16' E 006°39'0 0.0
2014-Aug-18 06:29N 43°16' E 006°39'0 0.0
2014-Aug-18 04:13N 43°16' E 006°39'0 0.0
2014-Aug-18 03:19N 43°16' E 006°39'0 0.0
2014-Aug-18 02:14N 43°16' E 006°39'0 0.0
2014-Aug-18 01:24N 43°16' E 006°39'0 0.0
2014-Aug-18 00:27N 43°16' E 006°39'0 0.0
2014-Aug-17 18:22N 43°16' E 006°39'0 0.4
2014-Aug-17 17:32N 43°16' E 006°40'2 1.7
2014-Aug-17 16:33N 43°17' E 006°41'4 3.9
2014-Aug-17 15:31N 43°14' E 006°40'0 0.0
2014-Aug-17 14:28N 43°14' E 006°40'0 0.0
2014-Aug-17 13:32N 43°14' E 006°40'0 0.4
2014-Aug-17 12:33N 43°14' E 006°41'1312.7
2014-Aug-17 11:33N 43°22' E 006°55'1413.7
2014-Aug-17 10:33N 43°31' E 007°08'1313.2
2014-Aug-17 09:33N 43°40' E 007°21'2 2.0
2014-Aug-17 08:23N 43°43' E 007°21'0 0.0
2014-Aug-17 07:30N 43°43' E 007°21'0 0.0
2014-Aug-17 04:32N 43°43' E 007°21'0 0.0
2014-Aug-17 03:33N 43°43' E 007°21'0 0.0
2014-Aug-17 02:33N 43°43' E 007°21'0 0.0
2014-Aug-17 01:28N 43°43' E 007°21'0 0.0
2014-Aug-17 00:23N 43°43' E 007°21'0 0.0
2014-Aug-16 23:29N 43°43' E 007°21'0 0.0
2014-Aug-16 22:30N 43°43' E 007°21'0 0.0
2014-Aug-16 21:25N 43°43' E 007°21'0 0.1
2014-Aug-16 20:31N 43°43' E 007°21'0 0.0
2014-Aug-16 19:32N 43°43' E 007°21'0 0.0
2014-Aug-16 18:33N 43°43' E 007°21'0 0.0
2014-Aug-16 17:33N 43°43' E 007°21'0 0.0
2014-Aug-16 16:28N 43°43' E 007°21'0 0.0
2014-Aug-16 15:29N 43°43' E 007°21'0 0.0
2014-Aug-16 14:29N 43°43' E 007°21'0 0.0
2014-Aug-16 12:19N 43°43' E 007°21'0 0.0
2014-Aug-16 11:09N 43°43' E 007°21'0 0.0
2014-Aug-16 10:27N 43°43' E 007°21'0 0.0
2014-Aug-16 09:28N 43°43' E 007°21'0 0.0
2014-Aug-16 08:29N 43°43' E 007°21'0 0.0
2014-Aug-16 07:17N 43°43' E 007°21'0 0.0
2014-Aug-16 06:30N 43°43' E 007°21'0 0.0
2014-Aug-16 05:31N 43°43' E 007°21'0 0.0
2014-Aug-16 04:31N 43°43' E 007°21'0 0.0
2014-Aug-16 03:32N 43°43' E 007°21'0 0.0
2014-Aug-16 02:33N 43°43' E 007°21'0 0.0
2014-Aug-16 01:27N 43°43' E 007°21'0 0.0
2014-Aug-16 00:28N 43°43' E 007°21'0 0.0
2014-Aug-15 23:17N 43°43' E 007°21'0 0.0
2014-Aug-15 22:29N 43°43' E 007°21'0 0.1
2014-Aug-15 21:12N 43°43' E 007°21'0 0.0
2014-Aug-15 20:19N 43°43' E 007°21'0 0.0
2014-Aug-15 19:31N 43°43' E 007°21'0 0.0
2014-Aug-15 18:32N 43°43' E 007°21'0 0.0
2014-Aug-15 17:27N 43°43' E 007°21'0 0.0
2014-Aug-15 16:33N 43°43' E 007°21'0 0.0
2014-Aug-15 15:10N 43°43' E 007°21'0 0.0
2014-Aug-15 14:29N 43°43' E 007°21'0 0.1
2014-Aug-15 13:11N 43°43' E 007°21'0 0.1
2014-Aug-15 12:30N 43°43' E 007°21'0 0.0
2014-Aug-15 11:31N 43°43' E 007°21'0 0.0
2014-Aug-15 10:31N 43°43' E 007°21'0 0.0
2014-Aug-15 09:32N 43°43' E 007°21'0 0.0
2014-Aug-15 08:27N 43°43' E 007°21'0 0.0
2014-Aug-15 07:21N 43°43' E 007°21'0 0.0
2014-Aug-15 06:22N 43°43' E 007°21'0 0.0
2014-Aug-15 05:29N 43°43' E 007°21'0 0.0
2014-Aug-15 04:29N 43°43' E 007°21'0 0.0
2014-Aug-15 03:30N 43°43' E 007°21'0 0.0
2014-Aug-15 02:25N 43°43' E 007°21'0 0.1
2014-Aug-15 01:31N 43°43' E 007°21'0 0.0
2014-Aug-15 00:32N 43°43' E 007°21'  

Dump ship's entire track history